sensor_id;sensor_type;location;lat;lon;timestamp;temperature;humidity
16627;DHT22;8427;52.204;7.202;2023-04-24T00:00:51;10.30;86.00
16627;DHT22;8427;52.204;7.202;2023-04-24T00:03:19;10.20;85.80
16627;DHT22;8427;52.204;7.202;2023-04-24T00:05:48;10.20;86.00
16627;DHT22;8427;52.204;7.202;2023-04-24T00:08:17;10.20;86.00
16627;DHT22;8427;52.204;7.202;2023-04-24T00:10:45;10.20;85.90
16627;DHT22;8427;52.204;7.202;2023-04-24T00:13:14;10.30;85.60
16627;DHT22;8427;52.204;7.202;2023-04-24T00:15:44;10.30;85.40
16627;DHT22;8427;52.204;7.202;2023-04-24T00:18:12;10.30;85.10
16627;DHT22;8427;52.204;7.202;2023-04-24T00:20:40;10.20;85.10
16627;DHT22;8427;52.204;7.202;2023-04-24T00:23:10;10.30;84.70
16627;DHT22;8427;52.204;7.202;2023-04-24T00:25:38;10.20;84.60
16627;DHT22;8427;52.204;7.202;2023-04-24T00:28:06;10.20;84.40
16627;DHT22;8427;52.204;7.202;2023-04-24T00:30:34;10.20;84.30
16627;DHT22;8427;52.204;7.202;2023-04-24T00:33:03;10.20;84.10
16627;DHT22;8427;52.204;7.202;2023-04-24T00:35:32;10.20;84.20
16627;DHT22;8427;52.204;7.202;2023-04-24T00:38:00;10.20;84.20
16627;DHT22;8427;52.204;7.202;2023-04-24T00:40:28;10.20;84.10
16627;DHT22;8427;52.204;7.202;2023-04-24T00:42:56;10.20;84.10
16627;DHT22;8427;52.204;7.202;2023-04-24T00:45:24;10.20;84.00
16627;DHT22;8427;52.204;7.202;2023-04-24T00:47:53;10.20;83.70
16627;DHT22;8427;52.204;7.202;2023-04-24T00:50:47;10.30;84.10
16627;DHT22;8427;52.204;7.202;2023-04-24T00:53:15;10.20;84.30
16627;DHT22;8427;52.204;7.202;2023-04-24T01:10:34;10.00;84.50
16627;DHT22;8427;52.204;7.202;2023-04-24T01:13:04;10.00;84.40
16627;DHT22;8427;52.204;7.202;2023-04-24T01:15:32;10.00;84.00
16627;DHT22;8427;52.204;7.202;2023-04-24T01:18:00;10.10;83.70
16627;DHT22;8427;52.204;7.202;2023-04-24T01:20:28;10.00;83.60
16627;DHT22;8427;52.204;7.202;2023-04-24T01:22:59;10.10;83.40
16627;DHT22;8427;52.204;7.202;2023-04-24T01:25:28;10.10;83.30
16627;DHT22;8427;52.204;7.202;2023-04-24T01:27:56;10.10;82.90
16627;DHT22;8427;52.204;7.202;2023-04-24T01:30:24;10.00;82.90
16627;DHT22;8427;52.204;7.202;2023-04-24T01:32:52;10.20;83.10
16627;DHT22;8427;52.204;7.202;2023-04-24T01:35:20;10.20;83.30
16627;DHT22;8427;52.204;7.202;2023-04-24T01:37:48;10.20;83.60
16627;DHT22;8427;52.204;7.202;2023-04-24T01:40:18;10.10;83.50
16627;DHT22;8427;52.204;7.202;2023-04-24T01:42:46;10.20;83.70
16627;DHT22;8427;52.204;7.202;2023-04-24T01:45:14;10.20;84.00
16627;DHT22;8427;52.204;7.202;2023-04-24T01:47:42;10.10;84.20
16627;DHT22;8427;52.204;7.202;2023-04-24T01:50:10;10.10;84.30
16627;DHT22;8427;52.204;7.202;2023-04-24T01:52:38;10.20;84.30
16627;DHT22;8427;52.204;7.202;2023-04-24T01:55:07;10.10;84.60
16627;DHT22;8427;52.204;7.202;2023-04-24T01:57:37;10.20;84.80
16627;DHT22;8427;52.204;7.202;2023-04-24T02:00:06;10.10;84.80
16627;DHT22;8427;52.204;7.202;2023-04-24T02:02:35;10.00;85.00
16627;DHT22;8427;52.204;7.202;2023-04-24T02:05:06;10.10;84.70
16627;DHT22;8427;52.204;7.202;2023-04-24T02:07:34;9.90;84.70
16627;DHT22;8427;52.204;7.202;2023-04-24T02:10:03;10.10;84.80
16627;DHT22;8427;52.204;7.202;2023-04-24T02:12:31;10.20;84.70
16627;DHT22;8427;52.204;7.202;2023-04-24T02:15:01;10.20;84.70
16627;DHT22;8427;52.204;7.202;2023-04-24T02:17:29;10.10;84.60
16627;DHT22;8427;52.204;7.202;2023-04-24T02:19:58;10.00;84.70
16627;DHT22;8427;52.204;7.202;2023-04-24T02:22:26;10.10;84.50
16627;DHT22;8427;52.204;7.202;2023-04-24T02:24:54;10.00;84.30
16627;DHT22;8427;52.204;7.202;2023-04-24T02:27:22;10.10;84.10
16627;DHT22;8427;52.204;7.202;2023-04-24T02:29:50;10.00;83.60
16627;DHT22;8427;52.204;7.202;2023-04-24T02:32:19;10.10;83.30
16627;DHT22;8427;52.204;7.202;2023-04-24T02:34:47;10.10;83.40
16627;DHT22;8427;52.204;7.202;2023-04-24T02:37:15;10.00;83.50
16627;DHT22;8427;52.204;7.202;2023-04-24T02:39:43;10.00;83.80
16627;DHT22;8427;52.204;7.202;2023-04-24T02:42:11;10.10;83.90
16627;DHT22;8427;52.204;7.202;2023-04-24T02:44:39;9.90;84.00
16627;DHT22;8427;52.204;7.202;2023-04-24T02:47:07;10.10;83.70
16627;DHT22;8427;52.204;7.202;2023-04-24T02:49:36;9.90;84.20
16627;DHT22;8427;52.204;7.202;2023-04-24T02:52:13;10.10;84.00
16627;DHT22;8427;52.204;7.202;2023-04-24T02:54:43;9.90;84.40
16627;DHT22;8427;52.204;7.202;2023-04-24T02:57:11;10.00;84.10
16627;DHT22;8427;52.204;7.202;2023-04-24T02:59:39;10.00;84.30
16627;DHT22;8427;52.204;7.202;2023-04-24T03:02:07;9.80;84.00
16627;DHT22;8427;52.204;7.202;2023-04-24T03:04:36;9.90;84.30
16627;DHT22;8427;52.204;7.202;2023-04-24T03:07:04;9.60;84.70
16627;DHT22;8427;52.204;7.202;2023-04-24T03:09:32;9.80;85.00
16627;DHT22;8427;52.204;7.202;2023-04-24T03:12:00;9.50;85.40
16627;DHT22;8427;52.204;7.202;2023-04-24T03:14:28;9.70;85.30
16627;DHT22;8427;52.204;7.202;2023-04-24T03:16:57;9.70;85.20
16627;DHT22;8427;52.204;7.202;2023-04-24T03:19:26;9.70;85.00
16627;DHT22;8427;52.204;7.202;2023-04-24T03:21:55;9.70;84.90
16627;DHT22;8427;52.204;7.202;2023-04-24T03:24:23;9.60;84.70
16627;DHT22;8427;52.204;7.202;2023-04-24T03:26:54;9.70;84.70
16627;DHT22;8427;52.204;7.202;2023-04-24T03:29:23;9.70;84.70
16627;DHT22;8427;52.204;7.202;2023-04-24T03:31:51;9.70;84.40
16627;DHT22;8427;52.204;7.202;2023-04-24T03:34:19;9.60;84.30
16627;DHT22;8427;52.204;7.202;2023-04-24T03:36:47;9.60;84.00
16627;DHT22;8427;52.204;7.202;2023-04-24T03:39:17;9.70;84.20
16627;DHT22;8427;52.204;7.202;2023-04-24T03:41:45;9.70;84.00
16627;DHT22;8427;52.204;7.202;2023-04-24T03:44:12;9.60;84.10
16627;DHT22;8427;52.204;7.202;2023-04-24T03:46:41;9.60;85.00
16627;DHT22;8427;52.204;7.202;2023-04-24T03:49:28;9.60;86.00
16627;DHT22;8427;52.204;7.202;2023-04-24T03:51:56;9.50;86.60
16627;DHT22;8427;52.204;7.202;2023-04-24T03:54:25;9.30;87.20
16627;DHT22;8427;52.204;7.202;2023-04-24T03:56:53;9.40;87.30
16627;DHT22;8427;52.204;7.202;2023-04-24T03:59:21;9.30;87.50
16627;DHT22;8427;52.204;7.202;2023-04-24T04:01:49;9.40;87.20
16627;DHT22;8427;52.204;7.202;2023-04-24T04:04:17;9.20;87.30
16627;DHT22;8427;52.204;7.202;2023-04-24T04:06:46;9.20;87.60
16627;DHT22;8427;52.204;7.202;2023-04-24T04:09:14;9.20;87.50
16627;DHT22;8427;52.204;7.202;2023-04-24T04:11:43;9.30;87.60
16627;DHT22;8427;52.204;7.202;2023-04-24T04:14:11;9.20;87.60
16627;DHT22;8427;52.204;7.202;2023-04-24T04:16:39;9.10;87.20
16627;DHT22;8427;52.204;7.202;2023-04-24T04:19:09;9.20;87.10
16627;DHT22;8427;52.204;7.202;2023-04-24T04:21:36;9.30;87.20
16627;DHT22;8427;52.204;7.202;2023-04-24T04:24:05;9.30;86.90
16627;DHT22;8427;52.204;7.202;2023-04-24T04:26:33;9.40;87.10
16627;DHT22;8427;52.204;7.202;2023-04-24T04:29:03;9.30;86.60
16627;DHT22;8427;52.204;7.202;2023-04-24T04:31:33;9.40;86.40
16627;DHT22;8427;52.204;7.202;2023-04-24T04:34:01;9.20;86.40
16627;DHT22;8427;52.204;7.202;2023-04-24T04:36:29;9.30;86.40
16627;DHT22;8427;52.204;7.202;2023-04-24T04:38:58;9.40;86.40
16627;DHT22;8427;52.204;7.202;2023-04-24T04:41:26;9.30;86.60
16627;DHT22;8427;52.204;7.202;2023-04-24T04:43:54;9.20;86.80
16627;DHT22;8427;52.204;7.202;2023-04-24T04:46:26;9.30;86.60
16627;DHT22;8427;52.204;7.202;2023-04-24T04:48:59;9.30;86.90
16627;DHT22;8427;52.204;7.202;2023-04-24T04:51:27;9.30;87.00
16627;DHT22;8427;52.204;7.202;2023-04-24T04:53:55;9.20;87.50
16627;DHT22;8427;52.204;7.202;2023-04-24T04:56:23;9.20;87.20
16627;DHT22;8427;52.204;7.202;2023-04-24T04:58:52;9.10;86.70
16627;DHT22;8427;52.204;7.202;2023-04-24T05:01:20;9.10;86.50
16627;DHT22;8427;52.204;7.202;2023-04-24T05:03:51;9.30;86.20
16627;DHT22;8427;52.204;7.202;2023-04-24T05:06:19;9.40;86.20
16627;DHT22;8427;52.204;7.202;2023-04-24T05:08:50;9.40;85.90
16627;DHT22;8427;52.204;7.202;2023-04-24T05:11:22;9.30;85.90
16627;DHT22;8427;52.204;7.202;2023-04-24T05:13:50;9.30;85.70
16627;DHT22;8427;52.204;7.202;2023-04-24T05:16:18;9.40;85.70
16627;DHT22;8427;52.204;7.202;2023-04-24T05:18:46;9.40;85.40
16627;DHT22;8427;52.204;7.202;2023-04-24T05:21:16;9.40;85.40
16627;DHT22;8427;52.204;7.202;2023-04-24T05:23:44;9.30;85.60
16627;DHT22;8427;52.204;7.202;2023-04-24T05:26:13;9.40;85.80
16627;DHT22;8427;52.204;7.202;2023-04-24T05:28:42;9.30;85.50
16627;DHT22;8427;52.204;7.202;2023-04-24T05:31:10;9.40;85.90
16627;DHT22;8427;52.204;7.202;2023-04-24T05:33:39;9.40;86.00
16627;DHT22;8427;52.204;7.202;2023-04-24T05:36:07;9.40;86.00
16627;DHT22;8427;52.204;7.202;2023-04-24T05:38:36;9.50;85.90
16627;DHT22;8427;52.204;7.202;2023-04-24T05:41:04;9.20;86.10
16627;DHT22;8427;52.204;7.202;2023-04-24T05:43:32;9.50;85.70
16627;DHT22;8427;52.204;7.202;2023-04-24T05:46:00;9.60;85.40
16627;DHT22;8427;52.204;7.202;2023-04-24T05:48:28;9.40;85.70
16627;DHT22;8427;52.204;7.202;2023-04-24T05:50:56;9.50;85.90
16627;DHT22;8427;52.204;7.202;2023-04-24T05:53:24;9.50;85.60
16627;DHT22;8427;52.204;7.202;2023-04-24T05:55:54;9.70;85.50
16627;DHT22;8427;52.204;7.202;2023-04-24T05:58:22;9.60;85.50
16627;DHT22;8427;52.204;7.202;2023-04-24T06:00:50;9.60;85.40
16627;DHT22;8427;52.204;7.202;2023-04-24T06:03:17;9.70;85.10
16627;DHT22;8427;52.204;7.202;2023-04-24T06:05:46;9.70;85.10
16627;DHT22;8427;52.204;7.202;2023-04-24T06:08:13;9.50;85.30
16627;DHT22;8427;52.204;7.202;2023-04-24T06:10:42;9.80;85.10
16627;DHT22;8427;52.204;7.202;2023-04-24T06:13:11;9.60;84.70
16627;DHT22;8427;52.204;7.202;2023-04-24T06:15:39;9.80;85.00
16627;DHT22;8427;52.204;7.202;2023-04-24T06:18:07;10.00;84.60
16627;DHT22;8427;52.204;7.202;2023-04-24T06:20:36;10.10;84.00
16627;DHT22;8427;52.204;7.202;2023-04-24T06:23:04;10.10;84.00
16627;DHT22;8427;52.204;7.202;2023-04-24T06:25:32;10.20;83.30
16627;DHT22;8427;52.204;7.202;2023-04-24T06:28:00;10.20;83.10
16627;DHT22;8427;52.204;7.202;2023-04-24T06:30:53;10.20;82.90
16627;DHT22;8427;52.204;7.202;2023-04-24T06:33:38;10.20;83.10
16627;DHT22;8427;52.204;7.202;2023-04-24T06:36:06;10.20;83.00
16627;DHT22;8427;52.204;7.202;2023-04-24T06:38:34;10.40;82.70
16627;DHT22;8427;52.204;7.202;2023-04-24T06:41:02;10.30;81.90
16627;DHT22;8427;52.204;7.202;2023-04-24T06:43:31;10.20;82.50
16627;DHT22;8427;52.204;7.202;2023-04-24T06:46:01;10.20;82.20
16627;DHT22;8427;52.204;7.202;2023-04-24T06:48:30;10.20;82.20
16627;DHT22;8427;52.204;7.202;2023-04-24T06:50:58;10.20;82.10
16627;DHT22;8427;52.204;7.202;2023-04-24T06:53:26;10.40;82.20
16627;DHT22;8427;52.204;7.202;2023-04-24T06:55:54;10.40;82.10
16627;DHT22;8427;52.204;7.202;2023-04-24T06:58:22;10.50;81.70
16627;DHT22;8427;52.204;7.202;2023-04-24T07:00:50;10.60;81.20
16627;DHT22;8427;52.204;7.202;2023-04-24T07:03:19;10.60;81.40
16627;DHT22;8427;52.204;7.202;2023-04-24T07:05:48;10.60;80.90
16627;DHT22;8427;52.204;7.202;2023-04-24T07:08:16;10.30;81.20
16627;DHT22;8427;52.204;7.202;2023-04-24T07:10:45;10.60;81.30
16627;DHT22;8427;52.204;7.202;2023-04-24T07:13:12;10.50;81.60
16627;DHT22;8427;52.204;7.202;2023-04-24T07:15:40;10.50;82.10
16627;DHT22;8427;52.204;7.202;2023-04-24T07:18:09;10.60;82.00
16627;DHT22;8427;52.204;7.202;2023-04-24T07:20:38;10.60;81.30
16627;DHT22;8427;52.204;7.202;2023-04-24T07:23:06;10.80;80.50
16627;DHT22;8427;52.204;7.202;2023-04-24T07:25:34;10.90;80.60
16627;DHT22;8427;52.204;7.202;2023-04-24T07:28:02;11.20;79.60
16627;DHT22;8427;52.204;7.202;2023-04-24T07:30:31;11.20;79.50
16627;DHT22;8427;52.204;7.202;2023-04-24T07:32:59;11.10;78.60
16627;DHT22;8427;52.204;7.202;2023-04-24T07:35:27;11.20;78.90
16627;DHT22;8427;52.204;7.202;2023-04-24T07:37:57;11.30;78.00
16627;DHT22;8427;52.204;7.202;2023-04-24T07:40:24;11.50;78.70
16627;DHT22;8427;52.204;7.202;2023-04-24T07:42:52;11.40;78.50
16627;DHT22;8427;52.204;7.202;2023-04-24T07:45:20;11.50;77.80
16627;DHT22;8427;52.204;7.202;2023-04-24T07:47:50;11.50;77.90
16627;DHT22;8427;52.204;7.202;2023-04-24T07:50:18;11.40;78.40
16627;DHT22;8427;52.204;7.202;2023-04-24T07:52:46;11.40;78.30
16627;DHT22;8427;52.204;7.202;2023-04-24T07:55:16;11.10;78.30
16627;DHT22;8427;52.204;7.202;2023-04-24T07:57:47;10.90;79.30
16627;DHT22;8427;52.204;7.202;2023-04-24T08:00:15;10.80;79.50
16627;DHT22;8427;52.204;7.202;2023-04-24T08:02:43;10.50;80.60
16627;DHT22;8427;52.204;7.202;2023-04-24T08:05:11;10.40;82.00
16627;DHT22;8427;52.204;7.202;2023-04-24T08:07:40;10.20;82.80
16627;DHT22;8427;52.204;7.202;2023-04-24T08:10:10;10.10;83.40
16627;DHT22;8427;52.204;7.202;2023-04-24T08:12:39;9.80;84.00
16627;DHT22;8427;52.204;7.202;2023-04-24T08:15:08;9.60;84.80
16627;DHT22;8427;52.204;7.202;2023-04-24T08:17:36;9.50;85.30
16627;DHT22;8427;52.204;7.202;2023-04-24T08:20:05;9.60;85.70
16627;DHT22;8427;52.204;7.202;2023-04-24T08:22:36;9.50;86.20
16627;DHT22;8427;52.204;7.202;2023-04-24T08:25:05;9.40;86.60
16627;DHT22;8427;52.204;7.202;2023-04-24T08:27:33;9.40;86.80
16627;DHT22;8427;52.204;7.202;2023-04-24T08:30:05;9.20;87.20
16627;DHT22;8427;52.204;7.202;2023-04-24T08:32:35;9.20;87.70
16627;DHT22;8427;52.204;7.202;2023-04-24T08:35:04;9.10;88.10
16627;DHT22;8427;52.204;7.202;2023-04-24T08:37:35;9.10;88.20
16627;DHT22;8427;52.204;7.202;2023-04-24T08:40:08;9.20;88.10
16627;DHT22;8427;52.204;7.202;2023-04-24T08:42:41;9.00;88.50
16627;DHT22;8427;52.204;7.202;2023-04-24T08:45:13;9.10;88.70
16627;DHT22;8427;52.204;7.202;2023-04-24T08:47:41;9.10;89.00
16627;DHT22;8427;52.204;7.202;2023-04-24T08:50:11;9.10;88.80
16627;DHT22;8427;52.204;7.202;2023-04-24T08:52:39;9.00;88.90
16627;DHT22;8427;52.204;7.202;2023-04-24T08:55:08;9.10;89.10
16627;DHT22;8427;52.204;7.202;2023-04-24T08:57:36;9.10;89.00
16627;DHT22;8427;52.204;7.202;2023-04-24T09:00:07;9.00;89.20
16627;DHT22;8427;52.204;7.202;2023-04-24T09:02:42;9.00;89.30
16627;DHT22;8427;52.204;7.202;2023-04-24T09:05:12;9.10;89.30
16627;DHT22;8427;52.204;7.202;2023-04-24T09:07:44;9.20;89.30
16627;DHT22;8427;52.204;7.202;2023-04-24T09:10:13;9.30;89.30
16627;DHT22;8427;52.204;7.202;2023-04-24T09:12:42;9.30;89.40
16627;DHT22;8427;52.204;7.202;2023-04-24T09:15:12;9.10;89.40
16627;DHT22;8427;52.204;7.202;2023-04-24T09:17:42;9.30;89.20
16627;DHT22;8427;52.204;7.202;2023-04-24T09:20:11;9.40;89.00
16627;DHT22;8427;52.204;7.202;2023-04-24T09:22:39;9.30;89.00
16627;DHT22;8427;52.204;7.202;2023-04-24T09:25:08;9.30;89.00
16627;DHT22;8427;52.204;7.202;2023-04-24T09:27:42;9.40;88.70
16627;DHT22;8427;52.204;7.202;2023-04-24T09:30:11;9.30;88.30
16627;DHT22;8427;52.204;7.202;2023-04-24T09:32:41;9.30;88.60
16627;DHT22;8427;52.204;7.202;2023-04-24T09:35:11;9.30;88.50
16627;DHT22;8427;52.204;7.202;2023-04-24T09:37:41;9.50;88.70
16627;DHT22;8427;52.204;7.202;2023-04-24T09:40:11;9.40;88.20
16627;DHT22;8427;52.204;7.202;2023-04-24T09:42:43;9.30;88.40
16627;DHT22;8427;52.204;7.202;2023-04-24T09:45:11;9.40;88.60
16627;DHT22;8427;52.204;7.202;2023-04-24T09:47:43;9.40;88.60
16627;DHT22;8427;52.204;7.202;2023-04-24T09:50:13;9.40;88.90
16627;DHT22;8427;52.204;7.202;2023-04-24T09:52:43;9.40;89.10
16627;DHT22;8427;52.204;7.202;2023-04-24T09:55:18;9.50;89.10
16627;DHT22;8427;52.204;7.202;2023-04-24T09:57:53;9.50;89.10
16627;DHT22;8427;52.204;7.202;2023-04-24T10:00:23;9.60;89.20
16627;DHT22;8427;52.204;7.202;2023-04-24T10:02:56;9.50;88.50
16627;DHT22;8427;52.204;7.202;2023-04-24T10:05:27;9.30;88.80
16627;DHT22;8427;52.204;7.202;2023-04-24T10:08:00;9.10;88.80
16627;DHT22;8427;52.204;7.202;2023-04-24T10:10:29;9.00;89.10
16627;DHT22;8427;52.204;7.202;2023-04-24T10:12:59;8.70;89.10
16627;DHT22;8427;52.204;7.202;2023-04-24T10:15:27;8.80;89.90
16627;DHT22;8427;52.204;7.202;2023-04-24T10:17:58;8.70;89.40
16627;DHT22;8427;52.204;7.202;2023-04-24T10:20:28;8.60;89.20
16627;DHT22;8427;52.204;7.202;2023-04-24T10:22:58;8.50;89.30
16627;DHT22;8427;52.204;7.202;2023-04-24T10:25:27;8.40;89.20
16627;DHT22;8427;52.204;7.202;2023-04-24T10:27:57;8.30;89.60
16627;DHT22;8427;52.204;7.202;2023-04-24T10:30:27;8.20;90.30
16627;DHT22;8427;52.204;7.202;2023-04-24T10:32:57;8.40;90.30
16627;DHT22;8427;52.204;7.202;2023-04-24T10:35:25;8.40;90.40
16627;DHT22;8427;52.204;7.202;2023-04-24T10:37:57;8.50;89.80
16627;DHT22;8427;52.204;7.202;2023-04-24T10:40:27;8.60;89.80
16627;DHT22;8427;52.204;7.202;2023-04-24T10:42:56;8.30;89.80
16627;DHT22;8427;52.204;7.202;2023-04-24T10:45:25;8.40;90.10
16627;DHT22;8427;52.204;7.202;2023-04-24T10:47:58;8.50;90.10
16627;DHT22;8427;52.204;7.202;2023-04-24T10:50:42;8.70;89.00
16627;DHT22;8427;52.204;7.202;2023-04-24T10:53:16;8.70;90.20
16627;DHT22;8427;52.204;7.202;2023-04-24T10:55:47;8.70;90.30
16627;DHT22;8427;52.204;7.202;2023-04-24T10:58:16;8.90;89.50
16627;DHT22;8427;52.204;7.202;2023-04-24T11:00:47;9.00;89.50
16627;DHT22;8427;52.204;7.202;2023-04-24T11:03:26;8.90;90.30
16627;DHT22;8427;52.204;7.202;2023-04-24T11:06:00;8.90;89.80
16627;DHT22;8427;52.204;7.202;2023-04-24T11:08:31;9.00;89.70
16627;DHT22;8427;52.204;7.202;2023-04-24T11:11:02;9.00;90.20
16627;DHT22;8427;52.204;7.202;2023-04-24T11:14:02;9.10;89.40
16627;DHT22;8427;52.204;7.202;2023-04-24T11:16:32;9.10;89.80
16627;DHT22;8427;52.204;7.202;2023-04-24T11:19:05;9.10;89.20
16627;DHT22;8427;52.204;7.202;2023-04-24T11:21:45;8.90;89.30
16627;DHT22;8427;52.204;7.202;2023-04-24T11:24:24;9.10;88.60
16627;DHT22;8427;52.204;7.202;2023-04-24T11:26:53;8.90;88.80
16627;DHT22;8427;52.204;7.202;2023-04-24T11:29:22;8.70;89.00
16627;DHT22;8427;52.204;7.202;2023-04-24T11:31:51;8.90;88.80
16627;DHT22;8427;52.204;7.202;2023-04-24T11:34:21;8.80;87.80
16627;DHT22;8427;52.204;7.202;2023-04-24T11:36:50;8.50;87.50
16627;DHT22;8427;52.204;7.202;2023-04-24T11:39:18;8.80;88.30
16627;DHT22;8427;52.204;7.202;2023-04-24T11:41:46;8.80;88.30
16627;DHT22;8427;52.204;7.202;2023-04-24T11:44:15;8.70;87.10
16627;DHT22;8427;52.204;7.202;2023-04-24T11:46:47;8.80;87.60
16627;DHT22;8427;52.204;7.202;2023-04-24T11:49:15;8.80;87.50
16627;DHT22;8427;52.204;7.202;2023-04-24T11:51:45;8.70;86.50
16627;DHT22;8427;52.204;7.202;2023-04-24T11:54:19;8.70;87.10
16627;DHT22;8427;52.204;7.202;2023-04-24T11:56:47;8.60;88.00
16627;DHT22;8427;52.204;7.202;2023-04-24T11:59:16;8.70;87.60
16627;DHT22;8427;52.204;7.202;2023-04-24T12:01:44;8.50;87.40
16627;DHT22;8427;52.204;7.202;2023-04-24T12:04:13;8.50;87.60
16627;DHT22;8427;52.204;7.202;2023-04-24T12:07:02;8.60;88.80
16627;DHT22;8427;52.204;7.202;2023-04-24T12:09:40;8.70;88.40
16627;DHT22;8427;52.204;7.202;2023-04-24T12:12:11;8.80;88.50
16627;DHT22;8427;52.204;7.202;2023-04-24T12:14:43;8.80;87.30
16627;DHT22;8427;52.204;7.202;2023-04-24T12:17:11;9.00;87.50
16627;DHT22;8427;52.204;7.202;2023-04-24T12:19:45;9.00;86.80
16627;DHT22;8427;52.204;7.202;2023-04-24T12:22:15;9.30;86.00
16627;DHT22;8427;52.204;7.202;2023-04-24T12:24:56;9.30;86.30
16627;DHT22;8427;52.204;7.202;2023-04-24T12:27:25;9.90;83.70
16627;DHT22;8427;52.204;7.202;2023-04-24T12:29:53;10.10;84.10
16627;DHT22;8427;52.204;7.202;2023-04-24T12:32:23;10.20;80.70
16627;DHT22;8427;52.204;7.202;2023-04-24T12:34:54;10.00;77.30
16627;DHT22;8427;52.204;7.202;2023-04-24T12:37:25;9.70;76.80
16627;DHT22;8427;52.204;7.202;2023-04-24T12:40:00;9.90;79.50
16627;DHT22;8427;52.204;7.202;2023-04-24T12:42:29;10.00;79.90
16627;DHT22;8427;52.204;7.202;2023-04-24T12:44:58;10.00;80.00
16627;DHT22;8427;52.204;7.202;2023-04-24T12:47:28;10.10;79.20
16627;DHT22;8427;52.204;7.202;2023-04-24T12:49:56;9.90;80.60
16627;DHT22;8427;52.204;7.202;2023-04-24T12:52:26;9.70;77.30
16627;DHT22;8427;52.204;7.202;2023-04-24T12:54:57;9.60;79.10
16627;DHT22;8427;52.204;7.202;2023-04-24T12:57:26;9.50;78.70
16627;DHT22;8427;52.204;7.202;2023-04-24T12:59:54;9.30;79.60
16627;DHT22;8427;52.204;7.202;2023-04-24T13:02:23;9.30;79.20
16627;DHT22;8427;52.204;7.202;2023-04-24T13:04:51;9.30;80.40
16627;DHT22;8427;52.204;7.202;2023-04-24T13:07:20;9.20;80.60
16627;DHT22;8427;52.204;7.202;2023-04-24T13:09:50;9.20;79.70
16627;DHT22;8427;52.204;7.202;2023-04-24T13:12:19;9.20;80.10
16627;DHT22;8427;52.204;7.202;2023-04-24T13:14:47;9.30;81.20
16627;DHT22;8427;52.204;7.202;2023-04-24T13:17:16;9.40;80.10
16627;DHT22;8427;52.204;7.202;2023-04-24T13:19:46;9.60;80.50
16627;DHT22;8427;52.204;7.202;2023-04-24T13:22:14;9.70;79.40
16627;DHT22;8427;52.204;7.202;2023-04-24T13:24:42;10.00;80.40
16627;DHT22;8427;52.204;7.202;2023-04-24T13:27:11;10.00;79.80
16627;DHT22;8427;52.204;7.202;2023-04-24T13:29:39;9.80;78.90
16627;DHT22;8427;52.204;7.202;2023-04-24T13:32:07;9.80;79.80
16627;DHT22;8427;52.204;7.202;2023-04-24T13:34:36;9.90;79.00
16627;DHT22;8427;52.204;7.202;2023-04-24T13:37:04;9.70;79.60
16627;DHT22;8427;52.204;7.202;2023-04-24T13:39:32;9.70;79.10
16627;DHT22;8427;52.204;7.202;2023-04-24T13:42:02;9.60;79.40
16627;DHT22;8427;52.204;7.202;2023-04-24T13:44:32;9.50;78.90
16627;DHT22;8427;52.204;7.202;2023-04-24T13:47:00;9.30;78.60
16627;DHT22;8427;52.204;7.202;2023-04-24T13:49:28;9.50;79.60
16627;DHT22;8427;52.204;7.202;2023-04-24T13:51:56;9.40;79.00
16627;DHT22;8427;52.204;7.202;2023-04-24T13:54:24;9.50;79.30
16627;DHT22;8427;52.204;7.202;2023-04-24T13:56:53;9.60;79.20
16627;DHT22;8427;52.204;7.202;2023-04-24T13:59:21;9.80;79.40
16627;DHT22;8427;52.204;7.202;2023-04-24T14:01:50;9.90;78.50
16627;DHT22;8427;52.204;7.202;2023-04-24T14:04:18;9.70;77.30
16627;DHT22;8427;52.204;7.202;2023-04-24T14:06:46;9.60;77.40
16627;DHT22;8427;52.204;7.202;2023-04-24T14:09:14;9.40;77.30
16627;DHT22;8427;52.204;7.202;2023-04-24T14:11:43;9.50;77.90
16627;DHT22;8427;52.204;7.202;2023-04-24T14:14:11;9.40;78.30
16627;DHT22;8427;52.204;7.202;2023-04-24T14:16:39;9.30;79.60
16627;DHT22;8427;52.204;7.202;2023-04-24T14:19:09;9.20;80.50
16627;DHT22;8427;52.204;7.202;2023-04-24T14:21:37;9.20;81.30
16627;DHT22;8427;52.204;7.202;2023-04-24T14:24:05;9.20;82.00
16627;DHT22;8427;52.204;7.202;2023-04-24T14:26:33;9.20;81.00
16627;DHT22;8427;52.204;7.202;2023-04-24T14:29:01;9.30;79.20
16627;DHT22;8427;52.204;7.202;2023-04-24T14:31:41;9.60;78.40
16627;DHT22;8427;52.204;7.202;2023-04-24T14:34:13;9.80;77.70
16627;DHT22;8427;52.204;7.202;2023-04-24T14:36:41;10.00;76.00
16627;DHT22;8427;52.204;7.202;2023-04-24T14:39:09;10.00;75.80
16627;DHT22;8427;52.204;7.202;2023-04-24T14:41:38;10.00;76.00
16627;DHT22;8427;52.204;7.202;2023-04-24T14:44:06;9.80;76.30
16627;DHT22;8427;52.204;7.202;2023-04-24T14:46:34;10.00;76.60
16627;DHT22;8427;52.204;7.202;2023-04-24T14:49:03;10.00;75.20
16627;DHT22;8427;52.204;7.202;2023-04-24T14:51:32;10.10;76.60
16627;DHT22;8427;52.204;7.202;2023-04-24T14:54:00;10.20;75.80
16627;DHT22;8427;52.204;7.202;2023-04-24T14:56:29;10.10;75.30
16627;DHT22;8427;52.204;7.202;2023-04-24T14:58:57;10.20;75.80
16627;DHT22;8427;52.204;7.202;2023-04-24T15:01:25;9.90;75.10
16627;DHT22;8427;52.204;7.202;2023-04-24T15:03:53;9.90;77.00
16627;DHT22;8427;52.204;7.202;2023-04-24T15:06:22;10.00;75.60
16627;DHT22;8427;52.204;7.202;2023-04-24T15:08:51;10.10;76.10
16627;DHT22;8427;52.204;7.202;2023-04-24T15:11:19;10.30;76.90
16627;DHT22;8427;52.204;7.202;2023-04-24T15:13:47;10.40;76.90
16627;DHT22;8427;52.204;7.202;2023-04-24T15:16:16;10.40;75.50
16627;DHT22;8427;52.204;7.202;2023-04-24T15:18:44;10.40;75.80
16627;DHT22;8427;52.204;7.202;2023-04-24T15:21:12;10.40;76.40
16627;DHT22;8427;52.204;7.202;2023-04-24T15:23:40;10.30;76.30
16627;DHT22;8427;52.204;7.202;2023-04-24T15:26:09;10.20;76.30
16627;DHT22;8427;52.204;7.202;2023-04-24T15:28:37;10.10;76.80
16627;DHT22;8427;52.204;7.202;2023-04-24T15:31:05;10.10;76.90
16627;DHT22;8427;52.204;7.202;2023-04-24T15:33:33;9.80;78.30
16627;DHT22;8427;52.204;7.202;2023-04-24T15:36:01;9.80;77.40
16627;DHT22;8427;52.204;7.202;2023-04-24T15:38:30;9.50;76.80
16627;DHT22;8427;52.204;7.202;2023-04-24T15:40:58;9.10;80.70
16627;DHT22;8427;52.204;7.202;2023-04-24T15:43:28;8.80;81.20
16627;DHT22;8427;52.204;7.202;2023-04-24T15:46:02;8.90;81.30
16627;DHT22;8427;52.204;7.202;2023-04-24T15:48:31;8.80;80.50
16627;DHT22;8427;52.204;7.202;2023-04-24T15:50:59;9.00;81.40
16627;DHT22;8427;52.204;7.202;2023-04-24T15:53:27;8.90;81.30
16627;DHT22;8427;52.204;7.202;2023-04-24T15:55:55;9.20;80.80
16627;DHT22;8427;52.204;7.202;2023-04-24T15:58:24;9.40;81.10
16627;DHT22;8427;52.204;7.202;2023-04-24T16:00:53;9.60;79.20
16627;DHT22;8427;52.204;7.202;2023-04-24T16:03:21;9.70;78.40
16627;DHT22;8427;52.204;7.202;2023-04-24T16:05:50;9.80;75.60
16627;DHT22;8427;52.204;7.202;2023-04-24T16:08:18;10.00;76.20
16627;DHT22;8427;52.204;7.202;2023-04-24T16:10:46;9.90;74.30
16627;DHT22;8427;52.204;7.202;2023-04-24T16:13:14;9.90;74.80
16627;DHT22;8427;52.204;7.202;2023-04-24T16:15:44;10.10;76.10
16627;DHT22;8427;52.204;7.202;2023-04-24T16:18:13;10.20;74.90
16627;DHT22;8427;52.204;7.202;2023-04-24T16:20:43;10.80;73.50
16627;DHT22;8427;52.204;7.202;2023-04-24T16:23:11;11.50;70.70